Terminal Aerodrome Forecast
Issued by NWS

Home | Current Version | Previous Version | Graphics & Text | Print | Product List | Glossary On
Versions: 1 2 3 4 5 6 7 8 9 10 11 12 13 14 15 16 17
000
FTUS43 KGRB 280711 AAA
TAFRHI
TAF AMD
KRHI 280711Z 2807/2906 04004KT 6SM -RA BR SCT005 OVC015
      TEMPO 2807/2810 4SM -RA BR BKN005
     FM281000 VRB02KT 4SM BR VCSH SCT004 OVC012
      TEMPO 2810/2813 1SM BR BKN004
     FM281400 06004KT 5SM HZ VCSH BKN030
     FM281800 05004KT P6SM BKN035
     FM290100 VRB02KT P6SM SCT035 BKN100=

USA.gov is the U.S. government's official web portal to all federal, state and local government web resources and services.